Buel, New York
Current Conditions -  °F | °C
As of 12:35 PM on Friday 21 Nov 2014 (Local Time) from KNY0 Reporting Station
Broken Clouds Broken Clouds  
Wind Chill: 11°   Ceiling: 3600
Heat Index: 25°   Visibility: 10mi
Dew Point:   Wind: 18mph
Humidity: 52%   Direction: 280°W
Pressure: 30.23"   Gusts: 23mph
Location:  42.8548°N, 74.5942°W
Report Text: KNY0 211735Z AUTO 28016G20KT 10SM BKN036 BKN045 M04/M13 A3023 RMK AO2 T10411126
Loading
Personal Weather Stations






























Interactive Weather Map New forecast layout! Learn more

10-Day Weather Forecast

Advertisements
Track Severe Weather on mobile